createdAt,value
2022-07-25T00:01:56.920Z,100186.75
2022-07-25T00:04:24.682Z,100189.16
2022-07-25T00:06:51.603Z,100184.78
2022-07-25T00:09:18.471Z,100190.09
2022-07-25T00:11:45.387Z,100186.78
2022-07-25T00:14:12.257Z,100186.44
2022-07-25T00:16:40.295Z,100193.88
2022-07-25T00:19:07.236Z,100206.38
2022-07-25T00:21:34.107Z,100169.69
2022-07-25T00:24:00.965Z,100172.72
2022-07-25T00:26:27.809Z,100181.69
2022-07-25T00:28:54.815Z,100186.09
2022-07-25T00:31:21.823Z,100193.94
2022-07-25T00:33:48.765Z,100185.31
2022-07-25T00:36:15.704Z,100191.44
2022-07-25T00:38:42.615Z,100201.88
2022-07-25T00:41:09.648Z,100177.06
2022-07-25T00:43:36.636Z,100185.56
2022-07-25T00:46:03.873Z,100154.94
2022-07-25T00:48:30.909Z,100194.88
2022-07-25T00:50:59.834Z,100208.00
2022-07-25T00:53:26.844Z,100159.84
2022-07-25T00:55:53.962Z,100211.00
2022-07-25T00:58:20.919Z,100149.78
2022-07-25T01:00:48.282Z,100206.38
2022-07-25T01:03:16.262Z,100202.00
2022-07-25T01:05:43.329Z,100195.06
2022-07-25T01:08:10.550Z,100208.44
2022-07-25T01:10:38.085Z,100204.06
2022-07-25T01:13:05.599Z,100201.91
2022-07-25T01:15:32.667Z,100220.19
2022-07-25T01:17:59.766Z,100209.00
2022-07-25T01:20:28.523Z,100199.84
2022-07-25T01:22:56.824Z,100214.63
2022-07-25T01:25:24.773Z,100214.50
2022-07-25T01:27:55.714Z,100195.13
2022-07-25T01:30:24.811Z,100210.38
2022-07-25T01:32:52.364Z,100191.09
2022-07-25T01:35:19.787Z,100205.16
2022-07-25T01:37:46.730Z,100156.09
2022-07-25T01:40:14.335Z,100195.84
2022-07-25T01:42:42.249Z,100176.44
2022-07-25T01:45:10.125Z,100204.31
2022-07-25T01:47:37.009Z,100194.97
2022-07-25T01:50:05.398Z,100207.72
2022-07-25T01:52:32.511Z,100156.66
2022-07-25T01:54:59.606Z,100164.66
2022-07-25T01:57:30.747Z,100225.06
2022-07-25T01:59:58.466Z,100206.53
2022-07-25T02:02:26.418Z,100218.38
2022-07-25T02:04:53.951Z,100219.84
2022-07-25T02:07:20.902Z,100197.28
2022-07-25T02:09:47.873Z,100201.22
2022-07-25T02:12:14.706Z,100196.31
2022-07-25T02:14:41.551Z,100193.34
2022-07-25T02:17:08.719Z,100187.19
2022-07-25T02:19:36.735Z,100192.91
2022-07-25T02:22:04.247Z,100195.50
2022-07-25T02:24:31.315Z,100187.81
2022-07-25T02:26:58.489Z,100206.34
2022-07-25T02:29:25.480Z,100198.72
2022-07-25T02:31:53.274Z,100187.00
2022-07-25T02:34:20.230Z,100205.84
2022-07-25T02:36:47.090Z,100186.44
2022-07-25T02:39:14.208Z,100204.78
2022-07-25T02:41:41.413Z,100214.03
2022-07-25T02:44:08.716Z,100180.19
2022-07-25T02:46:36.006Z,100183.16
2022-07-25T02:49:03.367Z,100203.38
2022-07-25T02:51:30.253Z,100191.25
2022-07-25T02:53:58.749Z,100180.41
2022-07-25T02:56:29.742Z,100208.63
2022-07-25T02:58:57.779Z,100194.88
2022-07-25T03:01:25.125Z,100200.91
2022-07-25T03:03:52.257Z,100206.78
2022-07-25T03:06:19.256Z,100203.69
2022-07-25T03:08:46.116Z,100194.81
2022-07-25T03:11:14.357Z,100200.94
2022-07-25T03:13:41.415Z,100205.66
2022-07-25T03:16:08.712Z,100202.38
2022-07-25T03:18:35.622Z,100182.47
2022-07-25T03:21:02.600Z,100187.50
2022-07-25T03:23:31.178Z,100182.47
2022-07-25T03:25:58.391Z,100206.03
2022-07-25T03:28:25.655Z,100192.91
2022-07-25T03:30:53.446Z,100204.78
2022-07-25T03:33:20.375Z,100222.66
2022-07-25T03:35:47.482Z,100198.94
2022-07-25T03:38:14.475Z,100199.13
2022-07-25T03:40:41.369Z,100205.00
2022-07-25T03:43:08.224Z,100196.91
2022-07-25T03:45:35.354Z,100203.69
2022-07-25T03:48:02.429Z,100194.66
2022-07-25T03:50:29.272Z,100212.03
2022-07-25T03:52:56.427Z,100212.34
2022-07-25T03:55:23.478Z,100219.78
2022-07-25T03:57:50.853Z,100187.72
2022-07-25T04:00:17.949Z,100198.34
2022-07-25T04:02:45.093Z,100208.06
2022-07-25T04:05:12.101Z,100214.47
2022-07-25T04:07:39.411Z,100222.47
2022-07-25T04:10:07.509Z,100182.00
2022-07-25T04:12:35.680Z,100221.59
2022-07-25T04:15:02.635Z,100216.72
2022-07-25T04:17:29.534Z,100217.22
2022-07-25T04:19:57.519Z,100216.56
2022-07-25T04:22:24.475Z,100212.72
2022-07-25T04:24:51.376Z,100221.78
2022-07-25T04:27:18.284Z,100233.38
2022-07-25T04:29:45.217Z,100224.00
2022-07-25T04:32:12.204Z,100216.34
2022-07-25T04:34:39.210Z,100212.81
2022-07-25T04:37:06.266Z,100218.81
2022-07-25T04:39:33.131Z,100210.97
2022-07-25T04:41:59.993Z,100203.34
2022-07-25T04:44:26.827Z,100206.59
2022-07-25T04:46:53.760Z,100200.31
2022-07-25T04:49:21.250Z,100208.00
2022-07-25T04:51:48.071Z,100234.00
2022-07-25T04:54:18.377Z,100226.75
2022-07-25T04:56:45.266Z,100205.25
2022-07-25T04:59:12.177Z,100221.56
2022-07-25T05:01:39.127Z,100228.84
2022-07-25T05:04:06.274Z,100206.25
2022-07-25T05:06:33.443Z,100232.50
2022-07-25T05:09:00.640Z,100222.16
2022-07-25T05:11:27.577Z,100212.06
2022-07-25T05:13:54.540Z,100230.72
2022-07-25T05:16:21.495Z,100215.41
2022-07-25T05:18:48.638Z,100205.28
2022-07-25T05:21:15.542Z,100200.38
2022-07-25T05:23:42.447Z,100209.50
2022-07-25T05:26:09.294Z,100237.84
2022-07-25T05:28:36.255Z,100210.94
2022-07-25T05:31:03.470Z,100241.34
2022-07-25T05:33:30.428Z,100238.09
2022-07-25T05:35:57.326Z,100216.66
2022-07-25T05:38:24.198Z,100232.09
2022-07-25T05:40:52.494Z,100216.72
2022-07-25T05:43:19.858Z,100221.88
2022-07-25T05:45:49.848Z,100224.94
2022-07-25T05:48:17.085Z,100215.13
2022-07-25T05:50:43.991Z,100245.47
2022-07-25T05:53:10.845Z,100218.81
2022-07-25T05:55:40.210Z,100223.59
2022-07-25T05:58:09.585Z,100227.59
2022-07-25T06:00:37.455Z,100190.28
2022-07-25T06:03:04.609Z,100226.19
2022-07-25T06:05:31.832Z,100234.94
2022-07-25T06:07:58.758Z,100234.00
2022-07-25T06:10:25.637Z,100233.41
2022-07-25T06:12:53.843Z,100252.72
2022-07-25T06:15:22.527Z,100208.16
2022-07-25T06:17:51.904Z,100189.31
2022-07-25T06:20:18.924Z,100232.50
2022-07-25T06:22:45.921Z,100230.03
2022-07-25T06:25:13.136Z,100229.34
2022-07-25T06:27:40.030Z,100235.28
2022-07-25T06:30:19.112Z,100205.44
2022-07-25T06:32:51.009Z,100208.53
2022-07-25T06:35:18.572Z,100224.50
2022-07-25T06:37:46.116Z,100206.28
2022-07-25T06:40:13.357Z,100220.13
2022-07-25T06:42:42.061Z,100226.28
2022-07-25T06:45:10.990Z,100209.00
2022-07-25T06:47:39.105Z,100208.13
2022-07-25T06:50:07.384Z,100219.88
2022-07-25T06:52:34.947Z,100181.06
2022-07-25T06:55:03.398Z,100204.88
2022-07-25T06:57:30.255Z,100184.16
2022-07-25T06:59:57.603Z,100212.81
2022-07-25T07:02:24.487Z,100128.31
2022-07-25T07:04:51.359Z,100200.25
2022-07-25T07:07:18.711Z,100185.28
2022-07-25T07:09:45.578Z,100196.75
2022-07-25T07:12:12.463Z,100190.13
2022-07-25T07:14:39.612Z,100219.97
2022-07-25T07:17:08.533Z,100203.41
2022-07-25T07:19:35.790Z,100198.00
2022-07-25T07:22:02.649Z,100199.03
2022-07-25T07:24:29.547Z,100182.50
2022-07-25T07:26:56.868Z,100173.06
2022-07-25T07:29:23.961Z,100171.09
2022-07-25T07:31:51.342Z,100188.00
2022-07-25T07:34:19.412Z,100191.38
2022-07-25T07:36:46.401Z,100201.03
2022-07-25T07:39:13.377Z,100190.72
2022-07-25T07:41:40.258Z,100195.59
2022-07-25T07:44:07.251Z,100174.28
2022-07-25T07:46:34.220Z,100195.94
2022-07-25T07:49:01.310Z,100188.09
2022-07-25T07:51:28.296Z,100176.25
2022-07-25T07:54:13.778Z,100188.72
2022-07-25T07:56:42.346Z,100182.09
2022-07-25T07:59:09.630Z,100186.47
2022-07-25T08:01:36.921Z,100196.50
2022-07-25T08:04:04.165Z,100179.69
2022-07-25T08:06:31.083Z,100181.38
2022-07-25T08:08:57.918Z,100195.00
2022-07-25T08:11:25.909Z,100188.19
2022-07-25T08:13:52.881Z,100171.25
2022-07-25T08:16:19.810Z,100192.47
2022-07-25T08:18:46.988Z,100199.88
2022-07-25T08:21:13.955Z,100200.78
2022-07-25T08:23:40.984Z,100201.31
2022-07-25T08:26:07.999Z,100200.72
2022-07-25T08:28:34.907Z,100199.22
2022-07-25T08:31:02.117Z,100205.03
2022-07-25T08:33:29.029Z,100187.06
2022-07-25T08:35:58.937Z,100201.53
2022-07-25T08:38:27.085Z,100197.78
2022-07-25T08:40:55.618Z,100202.78
2022-07-25T08:43:23.070Z,100187.88
2022-07-25T08:45:54.336Z,100209.50
2022-07-25T08:48:23.920Z,100199.13
2022-07-25T08:50:52.033Z,100195.84
2022-07-25T08:53:36.117Z,100200.28
2022-07-25T08:56:13.312Z,100195.63
2022-07-25T08:58:43.907Z,100171.84
2022-07-25T09:01:14.000Z,100190.41
2022-07-25T09:03:43.358Z,100184.63
2022-07-25T09:06:21.139Z,100186.34
2022-07-25T09:08:56.174Z,100175.41
2022-07-25T09:11:35.032Z,100192.28
2022-07-25T09:14:15.014Z,100188.44
2022-07-25T09:16:44.723Z,100191.66
2022-07-25T09:19:20.559Z,100188.41
2022-07-25T09:22:10.053Z,100179.28
2022-07-25T09:24:37.441Z,100176.63
2022-07-25T09:27:12.631Z,100168.66
2022-07-25T09:29:40.925Z,100181.38
2022-07-25T09:32:22.939Z,100170.16
2022-07-25T09:34:50.844Z,100185.72
2022-07-25T09:37:20.183Z,100181.88
2022-07-25T09:39:52.094Z,100179.53
2022-07-25T09:42:23.994Z,100182.16
2022-07-25T09:45:12.923Z,100165.34
2022-07-25T09:47:51.317Z,100173.72
2022-07-25T09:50:18.577Z,100170.25
2022-07-25T09:52:46.554Z,100162.72
2022-07-25T09:55:16.649Z,100156.69
2022-07-25T09:57:45.324Z,100175.09
2022-07-25T10:00:19.234Z,100158.50
2022-07-25T10:03:11.297Z,100164.78
2022-07-25T10:06:10.479Z,100157.84
2022-07-25T10:08:39.831Z,100158.22
2022-07-25T10:11:19.086Z,100151.53
2022-07-25T10:13:45.992Z,100138.22
2022-07-25T10:16:21.766Z,100150.41
2022-07-25T10:18:59.055Z,100136.34
2022-07-25T10:21:29.249Z,100122.53
2022-07-25T10:24:07.363Z,100137.31
2022-07-25T10:26:40.230Z,100126.16
2022-07-25T10:29:13.287Z,100097.13
2022-07-25T10:31:50.982Z,100097.94
2022-07-25T10:34:30.854Z,100102.81
2022-07-25T10:37:13.136Z,100119.72
2022-07-25T10:39:45.152Z,100123.75
2022-07-25T10:42:16.912Z,100108.78
2022-07-25T10:44:49.704Z,100075.84
2022-07-25T10:47:17.949Z,100117.00
2022-07-25T10:50:13.821Z,100112.41
2022-07-25T10:52:41.472Z,100105.31
2022-07-25T10:55:08.857Z,100079.16
2022-07-25T10:57:45.140Z,100062.72
2022-07-25T11:00:22.146Z,100081.28
2022-07-25T11:02:50.641Z,100078.97
2022-07-25T11:05:17.599Z,100084.91
2022-07-25T11:08:19.154Z,100070.50
2022-07-25T11:10:39.671Z,100055.75
2022-07-25T11:13:10.822Z,100072.41
2022-07-25T11:15:37.957Z,100006.03
2022-07-25T11:18:04.996Z,100060.22
2022-07-25T11:20:31.893Z,100017.22
2022-07-25T11:22:58.786Z,100040.16
2022-07-25T11:25:25.620Z,100050.22
2022-07-25T11:28:00.978Z,100052.53
2022-07-25T11:30:29.852Z,100033.41
2022-07-25T11:32:59.653Z,100047.63
2022-07-25T11:35:29.379Z,100020.38
2022-07-25T11:37:58.819Z,100040.94
2022-07-25T11:40:26.039Z,100019.13
2022-07-25T11:42:59.861Z,100006.81
2022-07-25T11:45:26.827Z,100028.16
2022-07-25T11:48:13.826Z,100031.34
2022-07-25T11:50:44.089Z,100000.94
2022-07-25T11:53:14.841Z,100021.03
2022-07-25T11:55:43.451Z,99999.03
2022-07-25T11:58:13.014Z,100007.59
2022-07-25T12:00:43.048Z,100013.94
2022-07-25T12:03:19.461Z,100009.69
2022-07-25T12:05:48.315Z,100006.28
2022-07-25T12:08:16.409Z,99982.41
2022-07-25T12:10:45.077Z,99994.88
2022-07-25T12:13:25.895Z,100001.88
2022-07-25T12:15:52.858Z,99980.44
2022-07-25T12:18:19.948Z,99992.66
2022-07-25T12:20:46.876Z,99980.84
2022-07-25T12:23:14.329Z,99969.97
2022-07-25T12:25:46.455Z,99975.78
2022-07-25T12:28:14.203Z,99962.97
2022-07-25T12:30:43.291Z,99946.63
2022-07-25T12:33:11.948Z,99966.78
2022-07-25T12:35:41.200Z,99940.03
2022-07-25T12:38:09.030Z,99941.63
2022-07-25T12:40:35.903Z,99944.69
2022-07-25T12:43:03.767Z,99943.41
2022-07-25T12:45:30.696Z,99932.53
2022-07-25T12:47:58.258Z,99912.41
2022-07-25T12:50:26.591Z,99925.59
2022-07-25T12:52:54.561Z,99901.78
2022-07-25T12:55:22.792Z,99926.97
2022-07-25T12:57:50.809Z,99911.22
2022-07-25T13:00:22.291Z,99916.72
2022-07-25T13:02:52.574Z,99894.94
2022-07-25T13:05:19.996Z,99920.13
2022-07-25T13:07:49.035Z,99892.91
2022-07-25T13:10:19.110Z,99882.66
2022-07-25T13:12:46.144Z,99890.75
2022-07-25T13:15:13.217Z,99892.38
2022-07-25T13:17:40.622Z,99868.91
2022-07-25T13:20:08.465Z,99892.00
2022-07-25T13:22:35.465Z,99865.56
2022-07-25T13:25:02.349Z,99875.00
2022-07-25T13:27:29.953Z,99874.53
2022-07-25T13:29:58.116Z,99881.19
2022-07-25T13:32:26.790Z,99868.25
2022-07-25T13:34:55.757Z,99840.44
2022-07-25T13:37:22.519Z,99871.56
2022-07-25T13:39:49.525Z,99861.72
2022-07-25T13:42:16.648Z,99852.63
2022-07-25T13:44:43.615Z,99859.75
2022-07-25T13:47:10.553Z,99854.09
2022-07-25T13:49:37.665Z,99839.78
2022-07-25T13:52:04.803Z,99849.50
2022-07-25T13:54:31.948Z,99828.38
2022-07-25T13:56:59.055Z,99839.78
2022-07-25T13:59:25.988Z,99835.03
2022-07-25T14:01:53.055Z,99831.13
2022-07-25T14:04:20.086Z,99754.28
2022-07-25T14:06:51.972Z,99834.13
2022-07-25T14:09:20.707Z,99832.00
2022-07-25T14:11:48.518Z,99819.56
2022-07-25T14:14:15.837Z,99819.75
2022-07-25T14:16:42.835Z,99802.25
2022-07-25T14:19:10.823Z,99815.94
2022-07-25T14:21:38.132Z,99800.19
2022-07-25T14:24:05.585Z,99804.00
2022-07-25T14:26:36.632Z,99773.66
2022-07-25T14:29:04.292Z,99807.72
2022-07-25T14:31:33.094Z,99810.84
2022-07-25T14:34:00.002Z,99753.19
2022-07-25T14:36:26.995Z,99790.97
2022-07-25T14:38:53.944Z,99789.94
2022-07-25T14:41:20.840Z,99797.91
2022-07-25T14:43:48.452Z,99790.00
2022-07-25T14:46:15.970Z,99784.94
2022-07-25T14:48:43.026Z,99782.78
2022-07-25T14:51:09.964Z,99768.16
2022-07-25T14:53:37.193Z,99769.09
2022-07-25T14:56:05.892Z,99778.22
2022-07-25T14:58:33.714Z,99772.59
2022-07-25T15:01:00.912Z,99765.91
2022-07-25T15:03:27.903Z,99764.25
2022-07-25T15:05:54.866Z,99740.69
2022-07-25T15:08:24.581Z,99758.31
2022-07-25T15:10:51.596Z,99762.19
2022-07-25T15:13:31.041Z,99744.78
2022-07-25T15:15:59.032Z,99724.13
2022-07-25T15:18:26.084Z,99740.84
2022-07-25T15:20:53.024Z,99747.97
2022-07-25T15:23:21.266Z,99716.69
2022-07-25T15:26:05.528Z,99746.94
2022-07-25T15:28:37.447Z,99745.44
2022-07-25T15:31:05.958Z,99747.38
2022-07-25T15:33:33.650Z,99717.06
2022-07-25T15:36:00.993Z,99732.28
2022-07-25T15:38:29.180Z,99734.47
2022-07-25T15:40:56.397Z,99721.69
2022-07-25T15:43:23.531Z,99713.97
2022-07-25T15:45:50.525Z,99731.38
2022-07-25T15:48:19.339Z,99718.31
2022-07-25T15:50:48.682Z,99730.81
2022-07-25T15:53:16.337Z,99719.44
2022-07-25T15:55:43.741Z,99695.13
2022-07-25T15:58:11.351Z,99711.84
2022-07-25T16:00:39.849Z,99707.78
2022-07-25T16:03:07.078Z,99708.78
2022-07-25T16:05:34.582Z,99704.25
2022-07-25T16:08:02.196Z,99710.50
2022-07-25T16:10:31.744Z,99708.72
2022-07-25T16:12:58.943Z,99696.69
2022-07-25T16:15:26.441Z,99710.81
2022-07-25T16:17:53.845Z,99706.19
2022-07-25T16:20:20.761Z,99675.81
2022-07-25T16:22:49.195Z,99704.41
2022-07-25T16:25:16.511Z,99686.13
2022-07-25T16:27:43.399Z,99688.50
2022-07-25T16:30:12.308Z,99702.50
2022-07-25T16:32:39.212Z,99703.19
2022-07-25T16:35:06.473Z,99702.19
2022-07-25T16:37:33.358Z,99687.84
2022-07-25T16:40:00.409Z,99696.25
2022-07-25T16:42:27.271Z,99681.00
2022-07-25T16:44:54.166Z,99690.50
2022-07-25T16:47:21.729Z,99683.63
2022-07-25T16:49:48.565Z,99679.06
2022-07-25T16:52:15.821Z,99679.00
2022-07-25T16:54:42.699Z,99697.34
2022-07-25T16:57:09.604Z,99691.88
2022-07-25T16:59:36.578Z,99685.94
2022-07-25T17:02:04.179Z,99674.03
2022-07-25T17:04:31.321Z,99690.78
2022-07-25T17:06:58.281Z,99693.75
2022-07-25T17:09:25.390Z,99689.38
2022-07-25T17:11:52.377Z,99682.06
2022-07-25T17:14:19.305Z,99686.69
2022-07-25T17:16:46.469Z,99667.41
2022-07-25T17:19:13.454Z,99684.16
2022-07-25T17:21:40.306Z,99678.91
2022-07-25T17:24:07.678Z,99685.41
2022-07-25T17:26:35.664Z,99685.19
2022-07-25T17:29:02.557Z,99672.00
2022-07-25T17:31:29.655Z,99693.78
2022-07-25T17:33:56.590Z,99698.81
2022-07-25T17:36:23.606Z,99663.22
2022-07-25T17:38:50.570Z,99679.34
2022-07-25T17:41:17.400Z,99697.97
2022-07-25T17:43:44.366Z,99680.75
2022-07-25T17:46:13.649Z,99677.75
2022-07-25T17:48:41.758Z,99694.78
2022-07-25T17:51:08.756Z,99679.94
2022-07-25T17:53:35.869Z,99677.66
2022-07-25T17:56:03.475Z,99681.13
2022-07-25T17:58:31.931Z,99678.03
2022-07-25T18:01:01.316Z,99679.88
2022-07-25T18:03:28.723Z,99669.00
2022-07-25T18:05:55.846Z,99668.50
2022-07-25T18:08:22.803Z,99654.06
2022-07-25T18:10:52.502Z,99661.44
2022-07-25T18:13:19.424Z,99687.47
2022-07-25T18:15:47.342Z,99685.69
2022-07-25T18:18:19.878Z,99674.03
2022-07-25T18:20:47.451Z,99684.50
2022-07-25T18:23:14.610Z,99652.34
2022-07-25T18:25:41.590Z,99679.38
2022-07-25T18:28:08.925Z,99678.25
2022-07-25T18:30:36.874Z,99675.16
2022-07-25T18:33:03.832Z,99692.91
2022-07-25T18:35:30.693Z,99689.31
2022-07-25T18:37:57.554Z,99669.81
2022-07-25T18:40:24.466Z,99665.13
2022-07-25T18:42:51.372Z,99664.16
2022-07-25T18:45:19.324Z,99598.75
2022-07-25T18:47:47.613Z,99689.69
2022-07-25T18:50:14.516Z,99673.00
2022-07-25T18:52:41.810Z,99662.59
2022-07-25T18:55:10.242Z,99691.03
2022-07-25T18:57:37.987Z,99687.84
2022-07-25T19:00:09.203Z,99674.38
2022-07-25T19:02:36.210Z,99673.66
2022-07-25T19:05:03.596Z,99673.94
2022-07-25T19:07:31.820Z,99696.31
2022-07-25T19:09:58.681Z,99697.13
2022-07-25T19:12:27.469Z,99693.41
2022-07-25T19:14:54.859Z,99688.47
2022-07-25T19:17:22.110Z,99695.47
2022-07-25T19:19:49.352Z,99694.22
2022-07-25T19:22:16.619Z,99682.88
2022-07-25T19:24:43.968Z,99687.66
2022-07-25T19:27:11.727Z,99694.31
2022-07-25T19:29:38.885Z,99706.00
2022-07-25T19:32:07.479Z,99695.03
2022-07-25T19:34:34.359Z,99702.25
2022-07-25T19:37:01.372Z,99677.50
2022-07-25T19:39:28.343Z,99702.44
2022-07-25T19:41:55.304Z,99718.84
2022-07-25T19:44:22.215Z,99672.75
2022-07-25T19:46:49.704Z,99706.72
2022-07-25T19:49:17.304Z,99701.13
2022-07-25T19:51:44.334Z,99703.19
2022-07-25T19:54:11.595Z,99688.84
2022-07-25T19:56:41.517Z,99705.78
2022-07-25T19:59:08.466Z,99684.75
2022-07-25T20:01:36.188Z,99683.97
2022-07-25T20:04:05.630Z,99675.31
2022-07-25T20:06:32.870Z,99663.06
2022-07-25T20:08:59.745Z,99693.00
2022-07-25T20:11:26.675Z,99678.75
2022-07-25T20:13:54.479Z,99676.75
2022-07-25T20:16:21.548Z,99687.38
2022-07-25T20:18:48.770Z,99652.72
2022-07-25T20:21:18.088Z,99696.44
2022-07-25T20:23:45.881Z,99692.78
2022-07-25T20:26:14.015Z,99687.69
2022-07-25T20:28:41.250Z,99683.94
2022-07-25T20:31:08.270Z,99695.13
2022-07-25T20:33:36.020Z,99692.03
2022-07-25T20:36:03.707Z,99688.13
2022-07-25T20:38:32.416Z,99650.53
2022-07-25T20:41:00.668Z,99695.88
2022-07-25T20:43:28.760Z,99692.66
2022-07-25T20:45:55.889Z,99685.13
2022-07-25T20:48:23.135Z,99656.19
2022-07-25T20:50:50.367Z,99693.25
2022-07-25T20:53:17.350Z,99674.59
2022-07-25T20:55:44.186Z,99674.19
2022-07-25T20:58:11.288Z,99684.19
2022-07-25T21:00:38.224Z,99670.59
2022-07-25T21:03:08.255Z,99678.69
2022-07-25T21:05:37.883Z,99669.66
2022-07-25T21:08:06.165Z,99672.97
2022-07-25T21:10:33.302Z,99674.28
2022-07-25T21:13:00.262Z,99667.63
2022-07-25T21:15:27.100Z,99651.66
2022-07-25T21:17:54.011Z,99664.53
2022-07-25T21:20:20.934Z,99673.63
2022-07-25T21:22:48.039Z,99665.00
2022-07-25T21:25:15.142Z,99679.69
2022-07-25T21:27:42.411Z,99687.13
2022-07-25T21:30:10.717Z,99664.47
2022-07-25T21:32:39.349Z,99660.78
2022-07-25T21:35:06.811Z,99674.56
2022-07-25T21:37:34.101Z,99667.38
2022-07-25T21:40:01.132Z,99661.53
2022-07-25T21:42:28.177Z,99682.84
2022-07-25T21:44:55.058Z,99649.13
2022-07-25T21:47:21.984Z,99663.09
2022-07-25T21:50:07.792Z,99666.06
2022-07-25T21:52:35.322Z,99669.84
2022-07-25T21:55:04.681Z,99677.66
2022-07-25T21:57:31.892Z,99675.19
2022-07-25T21:59:58.953Z,99678.13
2022-07-25T22:02:26.281Z,99679.13
2022-07-25T22:04:53.368Z,99680.91
2022-07-25T22:07:20.343Z,99676.59
2022-07-25T22:09:47.207Z,99678.84
2022-07-25T22:12:15.128Z,99662.66
2022-07-25T22:14:42.303Z,99665.56
2022-07-25T22:17:09.457Z,99675.69
2022-07-25T22:19:36.649Z,99676.69
2022-07-25T22:22:05.690Z,99573.66
2022-07-25T22:24:32.652Z,99657.34
2022-07-25T22:26:59.604Z,99650.03
2022-07-25T22:29:26.506Z,99648.88
2022-07-25T22:31:53.453Z,99603.72
2022-07-25T22:34:20.534Z,99666.03
2022-07-25T22:36:48.179Z,99650.91
2022-07-25T22:39:16.500Z,99651.06
2022-07-25T22:41:44.110Z,99663.41
2022-07-25T22:44:11.045Z,99658.19
2022-07-25T22:46:38.021Z,99648.41
2022-07-25T22:49:05.784Z,99677.69
2022-07-25T22:51:33.073Z,99665.75
2022-07-25T22:54:00.583Z,99644.28
2022-07-25T22:56:28.152Z,99668.44
2022-07-25T22:58:55.634Z,99638.16
2022-07-25T23:01:23.138Z,99653.06
2022-07-25T23:03:50.775Z,99659.41
2022-07-25T23:06:21.614Z,99646.38
2022-07-25T23:08:49.118Z,99662.50
2022-07-25T23:11:16.491Z,99645.88
2022-07-25T23:13:43.452Z,99647.91
2022-07-25T23:16:10.686Z,99660.84
2022-07-25T23:18:38.656Z,99631.41
2022-07-25T23:21:06.311Z,99601.06
2022-07-25T23:23:33.371Z,99649.63
2022-07-25T23:26:00.308Z,99663.66
2022-07-25T23:28:27.210Z,99656.31
2022-07-25T23:30:54.317Z,99663.94
2022-07-25T23:33:25.546Z,99674.63
2022-07-25T23:35:53.582Z,99676.94
2022-07-25T23:38:20.813Z,99610.34
2022-07-25T23:40:49.125Z,99656.06
2022-07-25T23:43:24.719Z,99657.16
2022-07-25T23:46:02.946Z,99679.97
2022-07-25T23:48:29.964Z,99675.81
2022-07-25T23:50:56.980Z,99669.84
2022-07-25T23:53:23.880Z,99643.28
2022-07-25T23:55:50.821Z,99671.72
2022-07-25T23:58:17.793Z,99670.50
